sensor_id;sensor_type;location;lat;lon;timestamp;P1;durP1;ratioP1;P2;durP2;ratioP2
7931;SDS011;4011;49.424;10.894;2023-04-01T00:00:26;2.70;;;1.50;;
7931;SDS011;4011;49.424;10.894;2023-04-01T00:05:49;3.08;;;1.20;;
7931;SDS011;4011;49.424;10.894;2023-04-01T00:11:11;2.42;;;1.10;;
7931;SDS011;4011;49.424;10.894;2023-04-01T00:16:33;2.28;;;1.20;;
7931;SDS011;4011;49.424;10.894;2023-04-01T00:21:56;2.22;;;1.27;;
7931;SDS011;4011;49.424;10.894;2023-04-01T00:27:17;2.10;;;1.17;;
7931;SDS011;4011;49.424;10.894;2023-04-01T00:32:41;1.80;;;1.15;;
7931;SDS011;4011;49.424;10.894;2023-04-01T00:38:04;2.97;;;1.40;;
7931;SDS011;4011;49.424;10.894;2023-04-01T00:43:26;2.30;;;1.20;;
7931;SDS011;4011;49.424;10.894;2023-04-01T00:48:52;3.15;;;1.30;;
7931;SDS011;4011;49.424;10.894;2023-04-01T00:54:17;2.40;;;1.30;;
7931;SDS011;4011;49.424;10.894;2023-04-01T00:59:40;1.70;;;1.08;;
7931;SDS011;4011;49.424;10.894;2023-04-01T01:05:06;2.33;;;1.25;;
7931;SDS011;4011;49.424;10.894;2023-04-01T01:10:32;1.83;;;1.00;;
7931;SDS011;4011;49.424;10.894;2023-04-01T01:15:55;2.13;;;1.20;;
7931;SDS011;4011;49.424;10.894;2023-04-01T01:21:34;1.58;;;1.10;;
7931;SDS011;4011;49.424;10.894;2023-04-01T01:27:03;1.35;;;0.95;;
7931;SDS011;4011;49.424;10.894;2023-04-01T01:32:35;2.38;;;1.13;;
7931;SDS011;4011;49.424;10.894;2023-04-01T01:38:06;1.85;;;1.08;;
7931;SDS011;4011;49.424;10.894;2023-04-01T01:43:30;2.17;;;1.05;;
7931;SDS011;4011;49.424;10.894;2023-04-01T01:48:52;2.15;;;1.13;;
7931;SDS011;4011;49.424;10.894;2023-04-01T01:54:16;1.85;;;1.08;;
7931;SDS011;4011;49.424;10.894;2023-04-01T01:59:38;2.83;;;1.20;;
7931;SDS011;4011;49.424;10.894;2023-04-01T02:05:01;2.55;;;1.17;;
7931;SDS011;4011;49.424;10.894;2023-04-01T02:10:26;1.85;;;1.17;;
7931;SDS011;4011;49.424;10.894;2023-04-01T02:15:48;1.95;;;1.13;;
7931;SDS011;4011;49.424;10.894;2023-04-01T02:21:14;1.15;;;1.02;;
7931;SDS011;4011;49.424;10.894;2023-04-01T02:26:40;1.95;;;1.05;;
7931;SDS011;4011;49.424;10.894;2023-04-01T02:32:02;1.83;;;1.10;;
7931;SDS011;4011;49.424;10.894;2023-04-01T02:37:38;2.10;;;0.98;;
7931;SDS011;4011;49.424;10.894;2023-04-01T02:43:38;2.60;;;1.10;;
7931;SDS011;4011;49.424;10.894;2023-04-01T02:49:33;1.83;;;0.90;;
7931;SDS011;4011;49.424;10.894;2023-04-01T02:55:08;2.15;;;0.95;;
7931;SDS011;4011;49.424;10.894;2023-04-01T03:06:48;1.98;;;1.10;;
7931;SDS011;4011;49.424;10.894;2023-04-01T03:12:19;2.15;;;1.20;;
7931;SDS011;4011;49.424;10.894;2023-04-01T03:23:25;1.67;;;0.90;;
7931;SDS011;4011;49.424;10.894;2023-04-01T03:29:12;2.40;;;1.02;;
7931;SDS011;4011;49.424;10.894;2023-04-01T03:34:39;1.70;;;0.90;;
7931;SDS011;4011;49.424;10.894;2023-04-01T03:40:14;2.28;;;1.00;;
7931;SDS011;4011;49.424;10.894;2023-04-01T03:51:20;2.17;;;1.05;;
7931;SDS011;4011;49.424;10.894;2023-04-01T03:56:43;1.70;;;0.90;;
7931;SDS011;4011;49.424;10.894;2023-04-01T04:02:05;1.30;;;0.82;;
7931;SDS011;4011;49.424;10.894;2023-04-01T04:07:26;1.05;;;0.70;;
7931;SDS011;4011;49.424;10.894;2023-04-01T04:12:50;2.67;;;1.30;;
7931;SDS011;4011;49.424;10.894;2023-04-01T04:18:12;2.28;;;1.08;;
7931;SDS011;4011;49.424;10.894;2023-04-01T04:23:34;2.75;;;1.00;;
7931;SDS011;4011;49.424;10.894;2023-04-01T04:28:59;1.95;;;1.08;;
7931;SDS011;4011;49.424;10.894;2023-04-01T04:34:20;0.77;;;0.55;;
7931;SDS011;4011;49.424;10.894;2023-04-01T04:39:42;1.48;;;0.77;;
7931;SDS011;4011;49.424;10.894;2023-04-01T04:45:06;0.93;;;0.73;;
7931;SDS011;4011;49.424;10.894;2023-04-01T04:50:28;3.65;;;1.15;;
7931;SDS011;4011;49.424;10.894;2023-04-01T04:55:51;1.63;;;1.00;;
7931;SDS011;4011;49.424;10.894;2023-04-01T05:01:14;1.83;;;0.77;;
7931;SDS011;4011;49.424;10.894;2023-04-01T05:06:36;1.10;;;0.90;;
7931;SDS011;4011;49.424;10.894;2023-04-01T05:11:58;2.17;;;1.08;;
7931;SDS011;4011;49.424;10.894;2023-04-01T05:17:21;2.47;;;1.15;;
7931;SDS011;4011;49.424;10.894;2023-04-01T05:22:45;1.67;;;0.90;;
7931;SDS011;4011;49.424;10.894;2023-04-01T05:28:08;1.85;;;1.00;;
7931;SDS011;4011;49.424;10.894;2023-04-01T05:33:31;1.67;;;0.85;;
7931;SDS011;4011;49.424;10.894;2023-04-01T05:38:54;1.83;;;0.90;;
7931;SDS011;4011;49.424;10.894;2023-04-01T05:44:16;2.13;;;1.13;;
7931;SDS011;4011;49.424;10.894;2023-04-01T05:49:39;1.83;;;0.88;;
7931;SDS011;4011;49.424;10.894;2023-04-01T05:55:00;2.72;;;1.10;;
7931;SDS011;4011;49.424;10.894;2023-04-01T06:00:22;1.10;;;0.60;;
7931;SDS011;4011;49.424;10.894;2023-04-01T06:05:47;1.50;;;0.70;;
7931;SDS011;4011;49.424;10.894;2023-04-01T06:11:18;2.65;;;1.10;;
7931;SDS011;4011;49.424;10.894;2023-04-01T06:16:52;1.35;;;1.00;;
7931;SDS011;4011;49.424;10.894;2023-04-01T06:22:34;2.08;;;1.10;;
7931;SDS011;4011;49.424;10.894;2023-04-01T06:33:51;1.55;;;0.90;;
7931;SDS011;4011;49.424;10.894;2023-04-01T06:39:27;0.63;;;0.52;;
7931;SDS011;4011;49.424;10.894;2023-04-01T06:44:57;0.82;;;0.70;;
7931;SDS011;4011;49.424;10.894;2023-04-01T06:50:26;1.08;;;0.85;;
7931;SDS011;4011;49.424;10.894;2023-04-01T06:55:59;1.27;;;0.88;;
7931;SDS011;4011;49.424;10.894;2023-04-01T07:01:32;2.10;;;1.05;;
7931;SDS011;4011;49.424;10.894;2023-04-01T07:07:05;1.38;;;0.77;;
7931;SDS011;4011;49.424;10.894;2023-04-01T07:12:44;1.65;;;1.00;;
7931;SDS011;4011;49.424;10.894;2023-04-01T07:18:21;2.88;;;0.98;;
7931;SDS011;4011;49.424;10.894;2023-04-01T07:23:59;1.83;;;0.75;;
7931;SDS011;4011;49.424;10.894;2023-04-01T07:29:34;0.93;;;0.60;;
7931;SDS011;4011;49.424;10.894;2023-04-01T07:35:30;0.60;;;0.60;;
7931;SDS011;4011;49.424;10.894;2023-04-01T07:41:02;1.63;;;0.98;;
7931;SDS011;4011;49.424;10.894;2023-04-01T07:46:32;0.73;;;0.52;;
7931;SDS011;4011;49.424;10.894;2023-04-01T07:52:09;1.05;;;0.65;;
7931;SDS011;4011;49.424;10.894;2023-04-01T07:57:43;1.23;;;0.80;;
7931;SDS011;4011;49.424;10.894;2023-04-01T08:03:36;1.30;;;0.82;;
7931;SDS011;4011;49.424;10.894;2023-04-01T08:09:26;1.75;;;0.80;;
7931;SDS011;4011;49.424;10.894;2023-04-01T08:15:06;1.45;;;0.88;;
7931;SDS011;4011;49.424;10.894;2023-04-01T08:20:44;1.55;;;0.90;;
7931;SDS011;4011;49.424;10.894;2023-04-01T08:26:30;0.63;;;0.60;;
7931;SDS011;4011;49.424;10.894;2023-04-01T08:32:17;1.40;;;0.70;;
7931;SDS011;4011;49.424;10.894;2023-04-01T08:55:27;2.03;;;0.90;;
7931;SDS011;4011;49.424;10.894;2023-04-01T09:01:26;1.83;;;0.90;;
7931;SDS011;4011;49.424;10.894;2023-04-01T09:12:59;1.75;;;1.08;;
7931;SDS011;4011;49.424;10.894;2023-04-01T09:24:19;1.15;;;0.90;;
7931;SDS011;4011;49.424;10.894;2023-04-01T09:30:06;1.42;;;0.65;;
7931;SDS011;4011;49.424;10.894;2023-04-01T09:35:39;1.77;;;0.95;;
7931;SDS011;4011;49.424;10.894;2023-04-01T09:41:07;1.40;;;0.75;;
7931;SDS011;4011;49.424;10.894;2023-04-01T09:46:48;1.00;;;0.63;;
7931;SDS011;4011;49.424;10.894;2023-04-01T09:52:30;1.85;;;1.00;;
7931;SDS011;4011;49.424;10.894;2023-04-01T09:58:08;0.75;;;0.75;;
7931;SDS011;4011;49.424;10.894;2023-04-01T10:27:06;1.08;;;0.70;;
7931;SDS011;4011;49.424;10.894;2023-04-01T10:38:58;1.60;;;0.77;;
7931;SDS011;4011;49.424;10.894;2023-04-01T10:50:24;1.25;;;0.80;;
7931;SDS011;4011;49.424;10.894;2023-04-01T11:01:31;0.73;;;0.65;;
7931;SDS011;4011;49.424;10.894;2023-04-01T11:12:51;0.95;;;0.70;;
7931;SDS011;4011;49.424;10.894;2023-04-01T11:30:32;1.63;;;0.85;;
7931;SDS011;4011;49.424;10.894;2023-04-01T11:36:04;1.58;;;0.90;;
7931;SDS011;4011;49.424;10.894;2023-04-01T11:41:40;0.82;;;0.70;;
7931;SDS011;4011;49.424;10.894;2023-04-01T12:16:28;0.93;;;0.88;;
7931;SDS011;4011;49.424;10.894;2023-04-01T12:22:07;1.33;;;0.93;;
7931;SDS011;4011;49.424;10.894;2023-04-01T12:27:38;0.70;;;0.70;;
7931;SDS011;4011;49.424;10.894;2023-04-01T12:33:10;0.95;;;0.80;;
7931;SDS011;4011;49.424;10.894;2023-04-01T12:38:36;0.80;;;0.80;;
7931;SDS011;4011;49.424;10.894;2023-04-01T12:44:15;2.03;;;1.00;;
7931;SDS011;4011;49.424;10.894;2023-04-01T12:49:46;1.20;;;0.77;;
7931;SDS011;4011;49.424;10.894;2023-04-01T12:55:18;2.00;;;0.93;;
7931;SDS011;4011;49.424;10.894;2023-04-01T13:06:16;0.93;;;0.70;;
7931;SDS011;4011;49.424;10.894;2023-04-01T13:11:42;1.48;;;0.80;;
7931;SDS011;4011;49.424;10.894;2023-04-01T13:17:07;0.93;;;0.80;;
7931;SDS011;4011;49.424;10.894;2023-04-01T13:22:33;2.08;;;1.00;;
7931;SDS011;4011;49.424;10.894;2023-04-01T13:27:56;1.42;;;0.80;;
7931;SDS011;4011;49.424;10.894;2023-04-01T13:33:21;2.80;;;0.90;;
7931;SDS011;4011;49.424;10.894;2023-04-01T13:38:56;1.20;;;0.80;;
7931;SDS011;4011;49.424;10.894;2023-04-01T13:44:28;1.65;;;1.10;;
7931;SDS011;4011;49.424;10.894;2023-04-01T13:55:55;1.42;;;0.82;;
7931;SDS011;4011;49.424;10.894;2023-04-01T14:01:26;1.40;;;0.63;;
7931;SDS011;4011;49.424;10.894;2023-04-01T14:07:14;0.88;;;0.70;;
7931;SDS011;4011;49.424;10.894;2023-04-01T14:13:01;1.55;;;0.70;;
7931;SDS011;4011;49.424;10.894;2023-04-01T14:18:50;0.95;;;0.70;;
7931;SDS011;4011;49.424;10.894;2023-04-01T14:30:29;1.15;;;0.80;;
7931;SDS011;4011;49.424;10.894;2023-04-01T14:35:56;1.15;;;0.80;;
7931;SDS011;4011;49.424;10.894;2023-04-01T14:41:20;0.70;;;0.60;;
7931;SDS011;4011;49.424;10.894;2023-04-01T14:52:27;0.85;;;0.70;;
7931;SDS011;4011;49.424;10.894;2023-04-01T14:57:59;1.30;;;0.90;;
7931;SDS011;4011;49.424;10.894;2023-04-01T15:03:22;1.25;;;0.70;;
7931;SDS011;4011;49.424;10.894;2023-04-01T15:08:49;1.50;;;0.90;;
7931;SDS011;4011;49.424;10.894;2023-04-01T15:14:19;0.50;;;0.50;;
7931;SDS011;4011;49.424;10.894;2023-04-01T15:19:46;0.68;;;0.50;;
7931;SDS011;4011;49.424;10.894;2023-04-01T15:25:21;1.02;;;0.85;;
7931;SDS011;4011;49.424;10.894;2023-04-01T15:30:47;1.13;;;0.85;;
7931;SDS011;4011;49.424;10.894;2023-04-01T15:36:15;0.60;;;0.60;;
7931;SDS011;4011;49.424;10.894;2023-04-01T15:41:46;1.15;;;0.70;;
7931;SDS011;4011;49.424;10.894;2023-04-01T15:47:19;0.73;;;0.70;;
7931;SDS011;4011;49.424;10.894;2023-04-01T15:52:54;1.73;;;0.93;;
7931;SDS011;4011;49.424;10.894;2023-04-01T15:58:26;1.52;;;1.08;;
7931;SDS011;4011;49.424;10.894;2023-04-01T16:03:52;0.68;;;0.68;;
7931;SDS011;4011;49.424;10.894;2023-04-01T16:09:18;2.08;;;0.90;;
7931;SDS011;4011;49.424;10.894;2023-04-01T16:14:48;1.95;;;1.20;;
7931;SDS011;4011;49.424;10.894;2023-04-01T16:20:14;1.73;;;1.30;;
7931;SDS011;4011;49.424;10.894;2023-04-01T16:25:39;1.88;;;1.20;;
7931;SDS011;4011;49.424;10.894;2023-04-01T16:31:05;2.63;;;1.38;;
7931;SDS011;4011;49.424;10.894;2023-04-01T16:41:49;1.88;;;1.13;;
7931;SDS011;4011;49.424;10.894;2023-04-01T16:47:14;2.42;;;1.40;;
7931;SDS011;4011;49.424;10.894;2023-04-01T16:52:43;2.40;;;1.30;;
7931;SDS011;4011;49.424;10.894;2023-04-01T16:58:09;2.35;;;1.48;;
7931;SDS011;4011;49.424;10.894;2023-04-01T17:03:33;2.40;;;1.40;;
7931;SDS011;4011;49.424;10.894;2023-04-01T17:09:07;2.60;;;1.50;;
7931;SDS011;4011;49.424;10.894;2023-04-01T17:14:36;2.30;;;1.33;;
7931;SDS011;4011;49.424;10.894;2023-04-01T17:20:07;2.45;;;1.50;;
7931;SDS011;4011;49.424;10.894;2023-04-01T17:25:36;2.33;;;1.40;;
7931;SDS011;4011;49.424;10.894;2023-04-01T17:31:01;2.83;;;1.55;;
7931;SDS011;4011;49.424;10.894;2023-04-01T17:36:27;2.15;;;1.30;;
7931;SDS011;4011;49.424;10.894;2023-04-01T17:41:54;2.30;;;1.40;;
7931;SDS011;4011;49.424;10.894;2023-04-01T17:47:23;1.85;;;1.38;;
7931;SDS011;4011;49.424;10.894;2023-04-01T17:52:54;2.05;;;1.40;;
7931;SDS011;4011;49.424;10.894;2023-04-01T17:58:18;2.17;;;1.30;;
7931;SDS011;4011;49.424;10.894;2023-04-01T18:03:52;2.72;;;1.70;;
7931;SDS011;4011;49.424;10.894;2023-04-01T18:09:20;2.03;;;1.40;;
7931;SDS011;4011;49.424;10.894;2023-04-01T18:14:53;3.22;;;1.60;;
7931;SDS011;4011;49.424;10.894;2023-04-01T18:20:31;2.75;;;1.50;;
7931;SDS011;4011;49.424;10.894;2023-04-01T18:26:02;3.08;;;1.50;;
7931;SDS011;4011;49.424;10.894;2023-04-01T18:31:24;2.70;;;1.50;;
7931;SDS011;4011;49.424;10.894;2023-04-01T18:36:47;2.30;;;1.50;;
7931;SDS011;4011;49.424;10.894;2023-04-01T18:42:14;2.50;;;1.40;;
7931;SDS011;4011;49.424;10.894;2023-04-01T18:53:08;2.90;;;1.50;;
7931;SDS011;4011;49.424;10.894;2023-04-01T18:58:33;2.15;;;1.50;;
7931;SDS011;4011;49.424;10.894;2023-04-01T19:03:58;2.30;;;1.50;;
7931;SDS011;4011;49.424;10.894;2023-04-01T19:14:51;2.53;;;1.30;;
7931;SDS011;4011;49.424;10.894;2023-04-01T19:20:16;2.25;;;1.30;;
7931;SDS011;4011;49.424;10.894;2023-04-01T19:25:40;2.72;;;1.45;;
7931;SDS011;4011;49.424;10.894;2023-04-01T19:31:08;2.30;;;1.50;;
7931;SDS011;4011;49.424;10.894;2023-04-01T19:36:34;2.45;;;1.50;;
7931;SDS011;4011;49.424;10.894;2023-04-01T19:42:02;2.45;;;1.52;;
7931;SDS011;4011;49.424;10.894;2023-04-01T19:47:30;2.20;;;1.40;;
7931;SDS011;4011;49.424;10.894;2023-04-01T19:52:57;2.92;;;1.50;;
7931;SDS011;4011;49.424;10.894;2023-04-01T19:58:22;2.63;;;1.52;;
7931;SDS011;4011;49.424;10.894;2023-04-01T20:03:49;2.03;;;1.38;;
7931;SDS011;4011;49.424;10.894;2023-04-01T20:09:21;2.70;;;1.55;;
7931;SDS011;4011;49.424;10.894;2023-04-01T20:14:48;2.63;;;1.50;;
7931;SDS011;4011;49.424;10.894;2023-04-01T20:20:18;2.40;;;1.42;;
7931;SDS011;4011;49.424;10.894;2023-04-01T20:25:42;2.97;;;1.67;;
7931;SDS011;4011;49.424;10.894;2023-04-01T20:31:10;2.15;;;1.60;;
7931;SDS011;4011;49.424;10.894;2023-04-01T20:36:41;2.42;;;1.38;;
7931;SDS011;4011;49.424;10.894;2023-04-01T20:42:15;2.40;;;1.40;;
7931;SDS011;4011;49.424;10.894;2023-04-01T20:47:44;2.47;;;1.42;;
7931;SDS011;4011;49.424;10.894;2023-04-01T20:53:15;2.47;;;1.60;;
7931;SDS011;4011;49.424;10.894;2023-04-01T20:58:38;1.85;;;1.30;;
7931;SDS011;4011;49.424;10.894;2023-04-01T21:04:09;1.77;;;1.20;;
7931;SDS011;4011;49.424;10.894;2023-04-01T21:09:37;1.70;;;1.20;;
7931;SDS011;4011;49.424;10.894;2023-04-01T21:15:03;2.17;;;1.33;;
7931;SDS011;4011;49.424;10.894;2023-04-01T21:20:42;2.65;;;1.30;;
7931;SDS011;4011;49.424;10.894;2023-04-01T21:26:15;1.65;;;1.23;;
7931;SDS011;4011;49.424;10.894;2023-04-01T21:31:44;3.25;;;1.33;;
7931;SDS011;4011;49.424;10.894;2023-04-01T21:37:22;2.65;;;1.30;;
7931;SDS011;4011;49.424;10.894;2023-04-01T21:42:50;2.80;;;1.38;;
7931;SDS011;4011;49.424;10.894;2023-04-01T22:05:27;2.85;;;1.42;;
7931;SDS011;4011;49.424;10.894;2023-04-01T22:10:50;2.58;;;1.40;;
7931;SDS011;4011;49.424;10.894;2023-04-01T22:16:16;2.50;;;1.30;;
7931;SDS011;4011;49.424;10.894;2023-04-01T22:21:44;2.50;;;1.40;;
7931;SDS011;4011;49.424;10.894;2023-04-01T22:27:14;2.35;;;1.48;;
7931;SDS011;4011;49.424;10.894;2023-04-01T22:32:40;2.38;;;1.30;;
7931;SDS011;4011;49.424;10.894;2023-04-01T22:38:07;2.72;;;1.30;;
7931;SDS011;4011;49.424;10.894;2023-04-01T22:43:32;2.08;;;1.30;;
7931;SDS011;4011;49.424;10.894;2023-04-01T22:48:57;2.03;;;1.35;;
7931;SDS011;4011;49.424;10.894;2023-04-01T22:54:23;2.05;;;1.33;;
7931;SDS011;4011;49.424;10.894;2023-04-01T22:59:50;2.22;;;1.50;;
7931;SDS011;4011;49.424;10.894;2023-04-01T23:05:15;2.35;;;1.27;;
7931;SDS011;4011;49.424;10.894;2023-04-01T23:10:41;3.22;;;1.50;;
7931;SDS011;4011;49.424;10.894;2023-04-01T23:16:03;2.67;;;1.30;;
7931;SDS011;4011;49.424;10.894;2023-04-01T23:21:26;2.90;;;1.30;;
7931;SDS011;4011;49.424;10.894;2023-04-01T23:26:54;2.15;;;1.15;;
7931;SDS011;4011;49.424;10.894;2023-04-01T23:32:17;1.60;;;1.00;;
7931;SDS011;4011;49.424;10.894;2023-04-01T23:37:39;2.03;;;1.15;;
7931;SDS011;4011;49.424;10.894;2023-04-01T23:43:02;2.35;;;1.17;;
7931;SDS011;4011;49.424;10.894;2023-04-01T23:48:35;2.38;;;1.20;;
7931;SDS011;4011;49.424;10.894;2023-04-01T23:53:58;2.65;;;1.25;;
7931;SDS011;4011;49.424;10.894;2023-04-01T23:59:23;2.17;;;1.02;;
